Gerlach, NV

4:32 AM PDT on April 23, 2017 (GMT -0700)
Downtown Gerlach-Friends of Black Rock High Rock | | Change Station

Elev 3960 ft 40.65 °N, 119.36 °W | Updated 2 minutes ago

Partly Cloudy
Partly Cloudy
42.4 °F
Feels Like 42 °F
N
2.0
Wind Variable Wind from WSW
Gusts 5.0 mph

Today
High -- | Low -- °F
--% Chance of Precip.
Yesterday
High -- | Low -- °F
Precip. -- in
Pressure 29.82 in
Visibility 10.0 miles
Clouds Clear
Windchill 42 °F
Dew Point 32 °F
Humidity 67%
Rainfall 0.00 in
Snow Depth Not available.
6:06 AM 7:45 PM
Waning Crescent, 12% visible
METAR KLOL 231053Z AUTO 06006KT 10SM CLR 06/M03 A2987 RMK AO2 SLP098 T00561028 TSNO
Pressure 29.82 in
Visibility 10.0 miles
Clouds Clear
Windchill 42 °F
Dew Point 32 °F
Humidity 67%
Rainfall 0.00 in
Snow Depth Not available.
6:06 AM 7:45 PM
Waning Crescent, 12% visible
METAR KLOL 231053Z AUTO 06006KT 10SM CLR 06/M03 A2987 RMK AO2 SLP098 T00561028 TSNO

Get Severe Weather Alerts

Thanks for signing up!

Be on the lookout for a verification email in your inbox.

You'll start receiving the daily forecast at 8 AM.

×

10-Day Weather Forecast

Almanac

Astronomy

Apr. 23, 2017 Rise Set
Actual Time
Civil Twilight
Nautical Twilight
Astronomical Twilight
Moon
Length of Visible Light
Length of Day
Tomorrow will be .
, % of the Moon is Illuminated

Today's Extremes

State Highs State Lows

Community

WunderPhotos

WunderBlog® & News

Nearby

Air Quality

  Air Quality AQ Index Pollutant
Not available.

Snow Depth

Station Depth Elevation

Earthquake Activity

City Distance Mag. Time & Date
Minimum magnitude displayed is 2.5.

Coastal Water Temperatures

Place Temperature

Stations

Nearby Weather Stations

Station Location Temp. Windchill Dew Point Humidity Wind Precip. Elev Updated Type
                   

Watches & Warnings

There are currently no watches in effect.